createdAt,value
2023-01-19T00:01:29.979Z,10.75
2023-01-19T00:03:57.277Z,11.95
2023-01-19T00:06:24.728Z,15.25
2023-01-19T00:08:52.133Z,10.95
2023-01-19T00:11:20.124Z,13.18
2023-01-19T00:13:51.636Z,11.73
2023-01-19T00:16:21.794Z,13.57
2023-01-19T00:18:51.663Z,11.27
2023-01-19T00:21:19.760Z,10.07
2023-01-19T00:23:47.809Z,10.43
2023-01-19T00:26:16.575Z,15.23
2023-01-19T00:28:44.623Z,10.18
2023-01-19T00:31:12.517Z,14.73
2023-01-19T00:33:39.879Z,14.23
2023-01-19T00:36:09.134Z,15.02
2023-01-19T00:38:36.468Z,9.77
2023-01-19T00:41:03.705Z,13.63
2023-01-19T00:43:30.930Z,12.88
2023-01-19T00:45:58.331Z,11.27
2023-01-19T00:48:25.675Z,12.40
2023-01-19T00:50:52.959Z,17.25
2023-01-19T00:53:20.310Z,14.98
2023-01-19T00:55:47.828Z,15.18
2023-01-19T00:58:15.290Z,18.27
2023-01-19T01:00:42.936Z,14.23
2023-01-19T01:03:10.421Z,14.05
2023-01-19T01:05:41.843Z,14.80
2023-01-19T01:08:09.127Z,12.88
2023-01-19T01:10:36.464Z,15.50
2023-01-19T01:13:20.313Z,15.60
2023-01-19T01:15:53.175Z,13.38
2023-01-19T01:18:21.657Z,18.55
2023-01-19T01:20:49.072Z,16.35
2023-01-19T01:23:16.513Z,18.50
2023-01-19T01:25:43.933Z,24.15
2023-01-19T01:28:11.348Z,19.33
2023-01-19T01:30:41.102Z,18.73
2023-01-19T01:33:08.496Z,18.70
2023-01-19T01:35:35.876Z,16.90
2023-01-19T01:38:03.904Z,15.25
2023-01-19T01:40:31.388Z,15.00
2023-01-19T01:42:59.145Z,20.23
2023-01-19T01:45:38.410Z,19.35
2023-01-19T01:48:05.848Z,13.70
2023-01-19T01:50:35.669Z,19.52
2023-01-19T01:53:08.408Z,15.15
2023-01-19T01:55:45.479Z,12.95
2023-01-19T01:58:15.447Z,14.45
2023-01-19T02:01:01.653Z,11.73
2023-01-19T02:03:29.751Z,10.95
2023-01-19T02:06:01.892Z,17.15
2023-01-19T02:09:00.965Z,19.42
2023-01-19T02:11:48.523Z,15.43
2023-01-19T02:14:16.314Z,17.55
2023-01-19T02:16:43.927Z,11.02
2023-01-19T02:19:18.173Z,10.43
2023-01-19T02:21:58.665Z,11.77
2023-01-19T02:24:29.613Z,9.95
2023-01-19T02:26:58.051Z,11.27
2023-01-19T02:29:26.694Z,14.35
2023-01-19T02:31:55.758Z,9.80
2023-01-19T02:34:23.332Z,12.75
2023-01-19T02:36:52.758Z,11.00
2023-01-19T02:39:28.161Z,13.75
2023-01-19T02:42:01.474Z,10.73
2023-01-19T02:44:30.706Z,11.50
2023-01-19T02:46:58.025Z,10.60
2023-01-19T02:49:28.624Z,10.73
2023-01-19T02:51:56.810Z,9.50
2023-01-19T02:54:35.921Z,12.55
2023-01-19T02:57:12.401Z,11.00
2023-01-19T03:00:13.628Z,10.57
2023-01-19T03:02:59.174Z,11.98
2023-01-19T03:05:51.395Z,13.07
2023-01-19T03:08:42.294Z,11.00
2023-01-19T03:11:12.711Z,10.25
2023-01-19T03:13:45.956Z,13.00
2023-01-19T03:16:13.450Z,16.67
2023-01-19T03:18:46.149Z,14.93
2023-01-19T03:21:15.121Z,11.57
2023-01-19T03:23:46.250Z,12.47
2023-01-19T03:26:18.487Z,18.58
2023-01-19T03:28:47.502Z,15.85
2023-01-19T03:31:22.669Z,20.73
2023-01-19T03:34:22.958Z,20.08
2023-01-19T03:36:54.138Z,20.42
2023-01-19T03:39:28.733Z,21.27
2023-01-19T03:42:03.137Z,21.25
2023-01-19T03:44:33.278Z,24.85
2023-01-19T03:47:01.097Z,25.23
2023-01-19T03:49:31.553Z,24.77
2023-01-19T03:51:59.567Z,27.75
2023-01-19T03:54:27.532Z,27.48
2023-01-19T03:56:54.860Z,24.00
2023-01-19T03:59:22.380Z,26.00
2023-01-19T04:01:49.847Z,24.80
2023-01-19T04:04:17.363Z,26.33
2023-01-19T04:06:44.790Z,25.13
2023-01-19T04:09:12.081Z,26.30
2023-01-19T04:11:39.491Z,28.50
2023-01-19T04:14:06.813Z,24.73
2023-01-19T04:16:34.217Z,41.00
2023-01-19T04:19:01.864Z,52.97
2023-01-19T04:21:29.249Z,27.60
2023-01-19T04:23:56.493Z,29.85
2023-01-19T04:26:24.097Z,30.75
2023-01-19T04:28:51.477Z,28.30
2023-01-19T04:31:19.447Z,30.42
2023-01-19T04:33:46.770Z,35.33
2023-01-19T04:36:14.026Z,36.83
2023-01-19T04:38:41.337Z,42.03
2023-01-19T04:41:08.657Z,40.78
2023-01-19T04:43:35.983Z,34.60
2023-01-19T04:46:05.812Z,33.17
2023-01-19T04:51:00.790Z,26.15
2023-01-19T04:53:30.901Z,25.75
2023-01-19T04:55:59.762Z,26.13
2023-01-19T04:58:27.395Z,26.73
2023-01-19T05:00:54.664Z,25.30
2023-01-19T05:03:21.908Z,24.90
2023-01-19T05:05:49.240Z,25.45
2023-01-19T05:08:16.570Z,29.02
2023-01-19T05:10:43.776Z,22.75
2023-01-19T05:13:11.024Z,22.65
2023-01-19T05:15:38.531Z,19.85
2023-01-19T05:18:05.973Z,22.38
2023-01-19T05:20:33.241Z,23.27
2023-01-19T05:23:01.202Z,22.13
2023-01-19T05:25:29.113Z,25.58
2023-01-19T05:27:56.344Z,27.27
2023-01-19T05:30:24.547Z,27.33
2023-01-19T05:32:52.532Z,30.17
2023-01-19T05:35:31.345Z,27.20
2023-01-19T05:38:03.212Z,25.83
2023-01-19T05:40:31.268Z,24.23
2023-01-19T05:43:01.636Z,24.70
2023-01-19T05:45:30.173Z,24.05
2023-01-19T05:47:57.606Z,19.20
2023-01-19T05:50:25.471Z,23.20
2023-01-19T05:52:53.612Z,19.75
2023-01-19T05:55:21.578Z,16.92
2023-01-19T05:57:48.879Z,18.50
2023-01-19T06:00:17.222Z,17.70
2023-01-19T06:02:44.977Z,19.00
2023-01-19T06:05:12.506Z,20.75
2023-01-19T06:07:39.897Z,21.70
2023-01-19T06:10:08.471Z,21.33
2023-01-19T06:12:35.909Z,21.15
2023-01-19T06:15:03.437Z,18.60
2023-01-19T06:17:32.533Z,21.58
2023-01-19T06:19:59.738Z,26.38
2023-01-19T06:22:27.112Z,22.40
2023-01-19T06:24:54.601Z,22.45
2023-01-19T06:27:21.991Z,19.73
2023-01-19T06:29:49.257Z,19.92
2023-01-19T06:32:17.519Z,21.15
2023-01-19T06:34:44.964Z,21.70
2023-01-19T06:37:12.358Z,21.75
2023-01-19T06:39:41.282Z,19.45
2023-01-19T06:42:09.232Z,19.30
2023-01-19T06:44:37.109Z,18.45
2023-01-19T06:47:15.751Z,19.60
2023-01-19T06:49:44.167Z,17.43
2023-01-19T06:52:14.276Z,16.35
2023-01-19T06:54:43.395Z,15.15
2023-01-19T06:57:14.041Z,18.27
2023-01-19T06:59:42.182Z,15.82
2023-01-19T07:02:27.770Z,17.73
2023-01-19T07:04:56.978Z,27.95
2023-01-19T07:07:24.634Z,26.10
2023-01-19T07:09:54.095Z,31.42
2023-01-19T07:12:22.600Z,33.20
2023-01-19T07:14:50.465Z,18.95
2023-01-19T07:17:18.288Z,16.70
2023-01-19T07:19:46.764Z,15.38
2023-01-19T07:22:14.332Z,16.20
2023-01-19T07:24:41.820Z,16.70
2023-01-19T07:27:11.567Z,13.68
2023-01-19T07:29:40.038Z,14.40
2023-01-19T07:32:07.629Z,11.13
2023-01-19T07:34:36.030Z,17.13
2023-01-19T07:37:04.446Z,71.20
2023-01-19T07:39:32.174Z,40.72
2023-01-19T07:41:59.863Z,15.65
2023-01-19T07:44:27.268Z,11.20
2023-01-19T07:46:54.694Z,9.52
2023-01-19T07:49:22.089Z,9.63
2023-01-19T07:51:49.778Z,8.95
2023-01-19T07:54:17.075Z,8.85
2023-01-19T07:56:44.444Z,7.90
2023-01-19T07:59:12.140Z,6.90
2023-01-19T08:01:39.738Z,8.30
2023-01-19T08:04:07.245Z,8.15
2023-01-19T08:06:37.440Z,9.48
2023-01-19T08:09:05.794Z,24.55
2023-01-19T08:11:33.744Z,8.02
2023-01-19T08:14:01.114Z,6.93
2023-01-19T08:16:28.485Z,7.13
2023-01-19T08:18:56.298Z,6.75
2023-01-19T08:21:23.868Z,7.32
2023-01-19T08:23:55.615Z,12.07
2023-01-19T08:26:29.919Z,12.77
2023-01-19T08:29:00.029Z,42.03
2023-01-19T08:31:27.620Z,10.02
2023-01-19T08:33:55.275Z,8.75
2023-01-19T08:36:23.892Z,7.63
2023-01-19T08:38:52.673Z,7.30
2023-01-19T08:41:20.288Z,7.07
2023-01-19T08:43:48.225Z,6.88
2023-01-19T08:46:21.818Z,7.03
2023-01-19T08:48:50.427Z,6.60
2023-01-19T08:51:18.562Z,7.07
2023-01-19T08:53:45.968Z,11.18
2023-01-19T08:56:13.882Z,9.65
2023-01-19T08:58:42.359Z,7.10
2023-01-19T09:01:14.897Z,8.48
2023-01-19T09:03:42.748Z,11.80
2023-01-19T09:06:14.651Z,6.80
2023-01-19T09:08:42.001Z,7.47
2023-01-19T09:11:13.705Z,6.13
2023-01-19T09:13:41.694Z,7.78
2023-01-19T09:16:11.526Z,43.22
2023-01-19T09:18:39.424Z,24.85
2023-01-19T09:21:06.839Z,27.80
2023-01-19T09:23:34.220Z,24.58
2023-01-19T09:26:03.478Z,8.43
2023-01-19T09:28:30.991Z,10.85
2023-01-19T09:30:58.405Z,10.55
2023-01-19T09:33:25.849Z,19.73
2023-01-19T09:35:53.143Z,9.43
2023-01-19T09:38:20.928Z,20.73
2023-01-19T09:40:54.469Z,6.50
2023-01-19T09:43:30.998Z,5.53
2023-01-19T09:46:04.166Z,6.43
2023-01-19T09:48:34.530Z,5.80
2023-01-19T09:51:08.613Z,8.50
2023-01-19T09:53:55.588Z,8.68
2023-01-19T09:56:23.918Z,10.30
2023-01-19T09:58:52.223Z,10.55
2023-01-19T10:01:28.692Z,9.02
2023-01-19T10:04:17.346Z,14.90
2023-01-19T10:06:46.745Z,9.90
2023-01-19T10:09:32.036Z,11.65
2023-01-19T10:12:35.748Z,12.70
2023-01-19T10:15:20.847Z,8.57
2023-01-19T10:18:09.518Z,9.63
2023-01-19T10:20:41.776Z,9.35
2023-01-19T10:23:25.089Z,11.30
2023-01-19T10:25:52.510Z,8.77
2023-01-19T10:28:25.536Z,7.13
2023-01-19T10:30:55.904Z,10.05
2023-01-19T10:33:23.336Z,13.32
2023-01-19T10:35:50.763Z,10.23
2023-01-19T10:38:22.324Z,10.25
2023-01-19T10:40:59.745Z,14.18
2023-01-19T10:43:44.294Z,10.52
2023-01-19T10:46:17.800Z,10.57
2023-01-19T10:48:48.943Z,11.75
2023-01-19T10:51:16.582Z,11.63
2023-01-19T10:54:02.198Z,10.40
2023-01-19T10:56:37.304Z,7.93
2023-01-19T10:59:07.030Z,9.15
2023-01-19T11:01:37.303Z,8.95
2023-01-19T11:04:28.623Z,14.13
2023-01-19T11:07:23.021Z,17.08
2023-01-19T11:10:10.678Z,17.98
2023-01-19T11:13:02.816Z,20.55
2023-01-19T11:15:44.057Z,13.73
2023-01-19T11:18:33.899Z,9.82
2023-01-19T11:21:06.447Z,10.27
2023-01-19T11:23:42.096Z,6.45
2023-01-19T11:26:16.375Z,3.88
2023-01-19T11:28:48.727Z,6.53
2023-01-19T11:31:16.078Z,5.45
2023-01-19T11:33:50.567Z,4.80
2023-01-19T11:36:21.349Z,6.68
2023-01-19T11:38:51.826Z,22.00
2023-01-19T11:41:26.091Z,28.02
2023-01-19T11:43:55.977Z,11.90
2023-01-19T11:46:27.365Z,5.50
2023-01-19T11:49:20.035Z,5.50
2023-01-19T11:51:53.334Z,9.55
2023-01-19T11:54:27.380Z,6.35
2023-01-19T11:56:58.673Z,7.38
2023-01-19T11:59:26.221Z,9.88
2023-01-19T12:01:57.976Z,8.00
2023-01-19T12:04:32.845Z,6.90
2023-01-19T12:07:07.747Z,11.98
2023-01-19T12:09:42.794Z,10.02
2023-01-19T12:12:31.149Z,13.40
2023-01-19T12:15:26.454Z,26.35
2023-01-19T12:17:58.695Z,12.48
2023-01-19T12:20:36.668Z,9.40
2023-01-19T12:23:25.418Z,9.02
2023-01-19T12:26:21.972Z,11.82
2023-01-19T12:28:51.201Z,10.13
2023-01-19T12:31:23.243Z,9.98
2023-01-19T12:33:51.529Z,11.80
2023-01-19T12:36:27.849Z,13.52
2023-01-19T12:39:19.215Z,16.20
2023-01-19T12:41:47.539Z,16.20
2023-01-19T12:44:21.330Z,30.17
2023-01-19T12:47:07.643Z,19.60
2023-01-19T12:49:40.491Z,16.45
2023-01-19T12:52:25.436Z,19.17
2023-01-19T12:55:13.534Z,13.05
2023-01-19T12:58:02.213Z,14.68
2023-01-19T13:00:33.725Z,21.50
2023-01-19T13:03:03.942Z,17.10
2023-01-19T13:05:32.824Z,20.20
2023-01-19T13:08:07.199Z,18.15
2023-01-19T13:10:53.294Z,25.45
2023-01-19T13:13:24.747Z,22.02
2023-01-19T13:15:55.602Z,22.80
2023-01-19T13:18:39.123Z,21.70
2023-01-19T13:21:09.038Z,26.50
2023-01-19T13:26:33.086Z,36.10
2023-01-19T13:29:08.789Z,20.63
2023-01-19T13:31:38.412Z,26.08
2023-01-19T13:34:17.150Z,25.10
2023-01-19T13:36:47.227Z,16.63
2023-01-19T13:39:28.893Z,29.23
2023-01-19T13:42:01.513Z,13.98
2023-01-19T13:44:42.344Z,25.45
2023-01-19T13:47:19.156Z,22.77
2023-01-19T13:49:48.567Z,23.20
2023-01-19T13:52:25.629Z,18.50
2023-01-19T13:54:55.100Z,21.60
2023-01-19T13:57:25.022Z,20.35
2023-01-19T14:02:28.794Z,19.92
2023-01-19T14:04:57.304Z,21.23
2023-01-19T14:07:26.589Z,19.08
2023-01-19T14:10:06.131Z,14.88
2023-01-19T14:12:33.636Z,19.40
2023-01-19T14:15:01.003Z,18.20
2023-01-19T14:17:30.414Z,16.60
2023-01-19T14:20:01.000Z,21.85
2023-01-19T14:22:42.580Z,21.48
2023-01-19T14:25:34.268Z,20.90
2023-01-19T14:28:30.441Z,22.52
2023-01-19T14:31:00.700Z,19.85
2023-01-19T14:33:41.946Z,19.30
2023-01-19T14:36:11.667Z,24.23
2023-01-19T14:38:50.596Z,20.10
2023-01-19T14:41:37.055Z,21.48
2023-01-19T14:44:10.027Z,16.42
2023-01-19T14:46:38.499Z,15.65
2023-01-19T14:49:06.787Z,21.65
2023-01-19T14:51:34.227Z,13.57
2023-01-19T14:54:02.947Z,12.88
2023-01-19T14:56:32.400Z,16.73
2023-01-19T14:59:02.508Z,15.75
2023-01-19T15:01:31.294Z,14.55
2023-01-19T15:03:58.901Z,13.17
2023-01-19T15:06:26.887Z,10.23
2023-01-19T15:08:54.726Z,12.80
2023-01-19T15:11:33.865Z,18.95
2023-01-19T15:14:02.032Z,21.85
2023-01-19T15:16:33.797Z,21.55
2023-01-19T15:19:01.253Z,17.10
2023-01-19T15:21:28.711Z,23.23
2023-01-19T15:23:56.355Z,21.98
2023-01-19T15:26:26.344Z,17.10
2023-01-19T15:28:56.329Z,22.08
2023-01-19T15:33:51.368Z,23.63
2023-01-19T15:36:21.127Z,18.77
2023-01-19T15:38:51.152Z,19.80
2023-01-19T15:41:25.965Z,22.15
2023-01-19T15:43:55.167Z,14.50
2023-01-19T15:46:23.823Z,16.00
2023-01-19T15:48:51.916Z,19.38
2023-01-19T15:51:21.774Z,22.35
2023-01-19T15:56:23.512Z,19.42
2023-01-19T15:58:51.793Z,20.75
2023-01-19T16:01:22.051Z,19.67
2023-01-19T16:03:50.899Z,20.27
2023-01-19T16:06:21.511Z,18.80
2023-01-19T16:08:48.761Z,21.10
2023-01-19T16:11:18.503Z,19.10
2023-01-19T16:13:46.397Z,19.70
2023-01-19T16:16:19.667Z,14.13
2023-01-19T16:18:47.214Z,19.77
2023-01-19T16:21:18.208Z,21.95
2023-01-19T16:23:45.961Z,22.48
2023-01-19T16:26:43.647Z,19.08
2023-01-19T16:29:11.053Z,20.48
2023-01-19T16:31:39.812Z,21.17
2023-01-19T16:34:09.393Z,19.20
2023-01-19T16:36:41.159Z,19.85
2023-01-19T16:39:13.676Z,21.23
2023-01-19T16:41:41.542Z,20.48
2023-01-19T16:44:10.640Z,21.20
2023-01-19T16:46:40.951Z,18.13
2023-01-19T16:49:15.826Z,22.33
2023-01-19T16:51:44.417Z,23.77
2023-01-19T16:54:14.513Z,19.63
2023-01-19T16:56:44.035Z,18.45
2023-01-19T16:59:12.853Z,18.52
2023-01-19T17:01:46.051Z,19.60
2023-01-19T17:04:14.954Z,16.42
2023-01-19T17:06:42.462Z,18.73
2023-01-19T17:09:10.368Z,18.98
2023-01-19T17:11:40.283Z,19.75
2023-01-19T17:16:39.006Z,17.42
2023-01-19T17:19:07.897Z,18.02
2023-01-19T17:21:35.645Z,16.70
2023-01-19T17:24:03.191Z,19.00
2023-01-19T17:26:31.325Z,14.88
2023-01-19T17:29:00.487Z,15.25
2023-01-19T17:31:28.929Z,18.63
2023-01-19T17:33:56.502Z,16.17
2023-01-19T17:36:25.509Z,17.98
2023-01-19T17:38:54.469Z,18.98
2023-01-19T17:41:24.653Z,18.40
2023-01-19T17:43:52.304Z,17.27
2023-01-19T17:46:21.789Z,16.77
2023-01-19T17:48:56.667Z,17.50
2023-01-19T17:51:24.798Z,15.95
2023-01-19T17:53:53.126Z,20.80
2023-01-19T17:56:27.611Z,17.75
2023-01-19T17:58:58.622Z,18.88
2023-01-19T18:01:31.615Z,19.02
2023-01-19T18:03:59.752Z,22.52
2023-01-19T18:06:27.015Z,19.08
2023-01-19T18:08:54.326Z,17.95
2023-01-19T18:11:21.824Z,17.60
2023-01-19T18:13:50.725Z,18.08
2023-01-19T18:16:29.109Z,17.15
2023-01-19T18:18:57.628Z,17.10
2023-01-19T18:21:29.091Z,15.07
2023-01-19T18:24:04.205Z,19.95
2023-01-19T18:26:33.560Z,17.75
2023-01-19T18:29:01.429Z,18.75
2023-01-19T18:31:29.002Z,17.23
2023-01-19T18:33:56.445Z,19.17
2023-01-19T18:36:23.850Z,18.00
2023-01-19T18:38:52.476Z,19.67
2023-01-19T18:41:21.548Z,17.52
2023-01-19T18:43:49.327Z,22.13
2023-01-19T18:46:17.002Z,19.90
2023-01-19T18:48:44.706Z,18.13
2023-01-19T18:51:14.385Z,18.38
2023-01-19T18:53:42.470Z,23.02
2023-01-19T18:56:12.950Z,22.63
2023-01-19T18:58:40.538Z,17.83
2023-01-19T19:01:27.921Z,21.10
2023-01-19T19:03:56.820Z,18.23
2023-01-19T19:06:39.251Z,16.52
2023-01-19T19:09:06.683Z,17.83
2023-01-19T19:11:34.553Z,17.00
2023-01-19T19:14:04.156Z,17.52
2023-01-19T19:16:34.705Z,20.20
2023-01-19T19:19:02.718Z,18.88
2023-01-19T19:21:29.944Z,17.45
2023-01-19T19:23:58.539Z,16.27
2023-01-19T19:26:28.203Z,18.05
2023-01-19T19:28:55.641Z,16.52
2023-01-19T19:31:25.997Z,19.55
2023-01-19T19:33:55.158Z,23.25
2023-01-19T19:36:24.113Z,21.47
2023-01-19T19:38:52.058Z,18.27
2023-01-19T19:41:22.528Z,16.92
2023-01-19T19:43:50.138Z,20.23
2023-01-19T19:46:20.168Z,17.77
2023-01-19T19:48:48.880Z,17.88
2023-01-19T19:51:22.509Z,18.60
2023-01-19T19:53:51.825Z,17.67
2023-01-19T19:56:23.015Z,18.90
2023-01-19T19:58:51.824Z,23.13
2023-01-19T20:01:23.043Z,26.63
2023-01-19T20:03:52.136Z,22.70
2023-01-19T20:06:22.312Z,19.20
2023-01-19T20:08:51.987Z,19.83
2023-01-19T20:11:22.542Z,21.95
2023-01-19T20:13:50.810Z,20.05
2023-01-19T20:16:20.892Z,21.20
2023-01-19T20:18:54.307Z,20.75
2023-01-19T20:21:29.805Z,20.60
2023-01-19T20:24:00.759Z,18.33
2023-01-19T20:26:31.789Z,18.17
2023-01-19T20:29:02.933Z,18.80
2023-01-19T20:31:33.143Z,22.83
2023-01-19T20:34:05.068Z,17.95
2023-01-19T20:36:33.167Z,17.75
2023-01-19T20:39:01.412Z,19.13
2023-01-19T20:41:28.710Z,19.02
2023-01-19T20:43:56.107Z,17.02
2023-01-19T20:46:23.385Z,19.70
2023-01-19T20:48:53.049Z,17.75
2023-01-19T20:51:21.115Z,18.88
2023-01-19T20:53:48.730Z,17.63
2023-01-19T20:56:16.398Z,20.73
2023-01-19T20:58:43.823Z,19.30
2023-01-19T21:01:14.583Z,18.13
2023-01-19T21:03:42.818Z,20.23
2023-01-19T21:06:10.784Z,17.90
2023-01-19T21:08:38.527Z,20.20
2023-01-19T21:11:07.122Z,18.02
2023-01-19T21:13:35.468Z,16.95
2023-01-19T21:16:05.014Z,17.20
2023-01-19T21:18:33.395Z,24.75
2023-01-19T21:21:00.952Z,17.10
2023-01-19T21:23:28.835Z,16.17
2023-01-19T21:25:59.667Z,18.03
2023-01-19T21:28:28.849Z,15.05
2023-01-19T21:30:57.609Z,16.25
2023-01-19T21:33:25.262Z,18.17
2023-01-19T21:35:57.263Z,16.48
2023-01-19T21:38:30.196Z,17.15
2023-01-19T21:40:58.417Z,20.00
2023-01-19T21:43:26.730Z,18.85
2023-01-19T21:45:54.105Z,17.08
2023-01-19T21:48:22.081Z,18.95
2023-01-19T21:50:58.564Z,18.17
2023-01-19T21:53:25.897Z,18.83
2023-01-19T21:55:53.267Z,15.70
2023-01-19T21:58:23.821Z,15.88
2023-01-19T22:00:58.483Z,17.15
2023-01-19T22:03:27.420Z,16.95
2023-01-19T22:05:56.053Z,17.95
2023-01-19T22:08:24.478Z,17.30
2023-01-19T22:10:51.763Z,14.77
2023-01-19T22:13:19.425Z,17.13
2023-01-19T22:15:46.653Z,14.35
2023-01-19T22:18:13.978Z,15.90
2023-01-19T22:20:41.341Z,17.58
2023-01-19T22:23:08.629Z,17.42
2023-01-19T22:25:35.946Z,17.55
2023-01-19T22:28:03.268Z,20.60
2023-01-19T22:30:30.680Z,18.92
2023-01-19T22:33:00.159Z,17.58
2023-01-19T22:35:28.429Z,18.63
2023-01-19T22:37:55.707Z,21.70
2023-01-19T22:40:23.033Z,20.45
2023-01-19T22:42:50.416Z,15.95
2023-01-19T22:45:17.855Z,17.73
2023-01-19T22:47:46.475Z,23.38
2023-01-19T22:50:15.214Z,19.88
2023-01-19T22:52:42.587Z,18.30
2023-01-19T22:55:10.213Z,19.88
2023-01-19T22:57:38.355Z,23.33
2023-01-19T23:00:09.258Z,21.65
2023-01-19T23:02:37.740Z,18.15
2023-01-19T23:05:06.674Z,19.67
2023-01-19T23:07:34.085Z,19.95
2023-01-19T23:10:01.768Z,26.00
2023-01-19T23:12:33.353Z,21.60
2023-01-19T23:15:00.628Z,20.05
2023-01-19T23:17:29.722Z,16.52
2023-01-19T23:19:57.457Z,18.73
2023-01-19T23:22:25.708Z,17.02
2023-01-19T23:24:53.489Z,17.52
2023-01-19T23:27:20.821Z,15.82
2023-01-19T23:29:48.165Z,15.60
2023-01-19T23:32:15.416Z,17.15
2023-01-19T23:34:43.194Z,23.48
2023-01-19T23:37:11.655Z,17.42
2023-01-19T23:39:39.059Z,18.95
2023-01-19T23:42:09.203Z,17.20
2023-01-19T23:44:38.607Z,19.23
2023-01-19T23:47:05.914Z,18.27
2023-01-19T23:49:33.261Z,20.50
2023-01-19T23:52:00.535Z,17.45
2023-01-19T23:54:51.956Z,17.23
2023-01-19T23:57:19.675Z,19.67
2023-01-19T23:59:47.988Z,18.08
